Time;durP1;ratioP1;P1;durP2;ratioP2;P2;SDS_P1;SDS_P2;PMS_P1;PMS_P2;Temp;Humidity;BMP_temperature;BMP_pressure;BME280_temperature;BME280_humidity;BME280_pressure;Samples;Min_cycle;Max_cycle;Signal;HPM_P1;HPM_P2
2022/12/31 00:01:13;;;;;;;2.00;0.80;;;12.60;99.90;;;;;;5053065;28;20270;-54
2022/12/31 00:03:41;;;;;;;1.27;0.70;;;12.70;99.90;;;;;;5052923;28;20680;-53
2022/12/31 00:06:16;;;;;;;1.50;0.87;;;12.70;99.90;;;;;;5052500;28;20208;-54
2022/12/31 00:08:43;;;;;;;1.53;0.70;;;12.70;99.90;;;;;;5052795;28;20259;-57
2022/12/31 00:11:10;;;;;;;1.27;0.80;;;12.70;99.90;;;;;;5052901;28;20206;-58
2022/12/31 00:13:37;;;;;;;2.17;0.80;;;12.60;99.90;;;;;;5052756;28;20252;-53
2022/12/31 00:16:08;;;;;;;1.20;0.70;;;12.60;99.90;;;;;;5052484;28;20225;-57
2022/12/31 00:18:35;;;;;;;1.20;0.80;;;12.60;99.90;;;;;;5052325;28;20225;-50
2022/12/31 00:21:07;;;;;;;0.93;0.83;;;12.50;99.90;;;;;;5052667;28;20219;-53
2022/12/31 00:23:34;;;;;;;1.10;0.90;;;12.50;99.90;;;;;;5052783;28;20205;-51
2022/12/31 00:26:05;;;;;;;1.17;0.90;;;12.50;99.90;;;;;;5051652;28;20194;-54
2022/12/31 00:28:33;;;;;;;2.10;0.80;;;12.50;99.90;;;;;;5055933;28;20230;-52
2022/12/31 00:31:05;;;;;;;1.70;0.70;;;12.50;99.90;;;;;;5072158;28;20212;-55
2022/12/31 00:33:32;;;;;;;0.93;0.60;;;12.50;99.90;;;;;;5072384;28;20671;-54
2022/12/31 00:36:09;;;;;;;0.77;0.60;;;12.50;99.90;;;;;;5071916;28;20212;-58
2022/12/31 00:38:37;;;;;;;1.77;0.60;;;12.40;99.90;;;;;;5072108;28;20236;-53
2022/12/31 00:41:04;;;;;;;2.77;0.70;;;12.40;99.90;;;;;;5072117;28;20254;-55
2022/12/31 00:43:31;;;;;;;1.07;0.70;;;12.40;99.90;;;;;;5072172;28;20562;-51
2022/12/31 00:45:58;;;;;;;1.00;0.70;;;12.30;99.90;;;;;;5072005;28;20269;-54
2022/12/31 00:48:25;;;;;;;1.03;0.73;;;12.30;99.90;;;;;;5072135;28;20208;-57
2022/12/31 00:50:52;;;;;;;1.30;1.20;;;12.30;99.90;;;;;;5072142;28;20214;-53
2022/12/31 00:53:21;;;;;;;1.47;1.30;;;12.30;99.90;;;;;;5072021;28;20212;-57
2022/12/31 00:55:47;;;;;;;1.53;1.30;;;12.30;99.90;;;;;;5066178;28;20214;-53
2022/12/31 00:58:14;;;;;;;1.50;1.10;;;12.20;99.90;;;;;;5050915;28;20318;-55
2022/12/31 01:00:41;;;;;;;1.23;1.00;;;12.20;99.90;;;;;;5051867;28;20746;-60
2022/12/31 01:03:08;;;;;;;2.00;1.23;;;12.20;99.90;;;;;;5051932;28;20213;-57
2022/12/31 01:05:36;;;;;;;2.33;1.33;;;12.20;99.90;;;;;;5051296;28;20267;-59
2022/12/31 01:08:04;;;;;;;1.70;1.10;;;12.20;99.90;;;;;;5051330;28;20297;-53
2022/12/31 01:13:15;;;;;;;2.20;1.20;;;12.10;99.90;;;;;;5052130;28;20204;-55
2022/12/31 01:15:42;;;;;;;2.20;1.20;;;12.20;99.90;;;;;;5052024;28;20565;-55
2022/12/31 01:18:09;;;;;;;1.30;1.13;;;12.20;99.90;;;;;;5051548;28;20228;-53
2022/12/31 01:20:36;;;;;;;2.33;1.20;;;12.20;99.90;;;;;;5051707;28;20209;-59
2022/12/31 01:23:04;;;;;;;1.67;0.90;;;12.30;99.90;;;;;;5052022;28;20361;-54
2022/12/31 01:25:34;;;;;;;0.80;0.80;;;12.30;99.90;;;;;;5055209;28;20205;-56
2022/12/31 01:28:01;;;;;;;1.53;0.70;;;12.40;99.90;;;;;;5063450;28;20196;-57
2022/12/31 01:30:28;;;;;;;1.10;0.70;;;12.40;99.90;;;;;;5071749;28;20232;-59
2022/12/31 01:32:54;;;;;;;0.67;0.63;;;12.40;99.90;;;;;;5071679;28;20586;-57
2022/12/31 01:35:21;;;;;;;2.23;0.70;;;12.50;99.90;;;;;;5071619;28;20689;-58
2022/12/31 01:37:47;;;;;;;0.80;0.67;;;12.60;99.90;;;;;;5071142;28;20776;-54
2022/12/31 01:40:14;;;;;;;0.80;0.57;;;12.70;99.90;;;;;;5075348;28;20595;-57
2022/12/31 01:42:42;;;;;;;0.83;0.50;;;12.80;99.90;;;;;;5075790;28;20226;-53
2022/12/31 01:45:13;;;;;;;0.53;0.50;;;12.70;99.90;;;;;;5075190;28;20679;-55
2022/12/31 01:47:44;;;;;;;0.50;0.40;;;12.80;99.90;;;;;;5075180;28;20265;-55
2022/12/31 01:50:17;;;;;;;0.80;0.40;;;12.80;99.90;;;;;;5075115;28;20229;-58
2022/12/31 01:52:45;;;;;;;;;;;12.90;99.90;;;;;;5075943;28;20048;-58
2022/12/31 01:55:14;;;;;;;;;;;12.90;99.90;;;;;;5075242;28;19924;-54
2022/12/31 01:57:43;;;;;;;;;;;12.90;99.90;;;;;;5063576;28;19975;-56
2022/12/31 02:00:10;;;;;;;;;;;12.80;99.90;;;;;;5055623;28;19928;-55
2022/12/31 02:02:36;;;;;;;;;;;12.90;99.90;;;;;;5055624;28;19927;-59
2022/12/31 02:05:05;;;;;;;;;;;13.00;99.90;;;;;;5055406;28;19925;-57
2022/12/31 02:07:32;;;;;;;2.53;0.40;;;13.00;99.90;;;;;;5055009;28;20265;-56
2022/12/31 02:09:59;;;;;;;0.50;0.30;;;13.00;99.90;;;;;;5054885;28;20232;-63
2022/12/31 02:12:26;;;;;;;1.10;0.30;;;13.10;99.90;;;;;;5054704;28;20231;-53
2022/12/31 02:14:54;;;;;;;0.80;0.40;;;13.10;99.90;;;;;;5054740;28;20209;-54
2022/12/31 02:17:29;;;;;;;0.50;0.30;;;13.20;99.90;;;;;;5054436;28;20222;-56
2022/12/31 02:20:41;;;;;;;0.70;0.30;;;13.30;99.90;;;;;;5055041;28;20275;-55
2022/12/31 02:23:21;;;;;;;;;;;13.30;99.90;;;;;;5055507;28;20191;-57
2022/12/31 02:26:08;;;;;;;0.53;0.40;;;13.40;99.90;;;;;;5060393;28;20208;-52
2022/12/31 02:28:51;;;;;;;1.23;0.30;;;13.40;99.90;;;;;;5057716;28;20771;-54
2022/12/31 02:31:26;;;;;;;1.70;0.30;;;13.50;99.90;;;;;;5074338;28;20354;-54
2022/12/31 02:33:57;;;;;;;0.40;0.30;;;13.60;99.90;;;;;;5074538;28;20209;-54
2022/12/31 02:36:29;;;;;;;0.47;0.40;;;13.70;99.90;;;;;;5074237;28;20212;-54
2022/12/31 02:38:58;;;;;;;0.37;0.30;;;13.80;99.90;;;;;;5074379;28;20651;-51
2022/12/31 02:44:22;;;;;;;0.50;0.27;;;13.80;99.90;;;;;;5074471;28;20247;-57
2022/12/31 02:46:59;;;;;;;0.30;0.30;;;13.80;99.90;;;;;;5074245;28;20286;-56
2022/12/31 02:49:38;;;;;;;0.77;0.30;;;13.80;99.90;;;;;;5073726;28;20624;-57
2022/12/31 02:52:14;;;;;;;0.20;0.20;;;13.80;99.90;;;;;;5074191;28;20208;-56
2022/12/31 02:54:48;;;;;;;1.60;0.30;;;13.90;99.90;;;;;;5074228;28;20215;-57
2022/12/31 02:57:24;;;;;;;0.90;0.30;;;13.90;99.90;;;;;;5064535;28;20220;-55
2022/12/31 03:02:43;;;;;;;0.20;0.20;;;13.90;99.90;;;;;;5054082;28;20209;-58
2022/12/31 03:05:12;;;;;;;0.20;0.20;;;13.90;99.90;;;;;;5053889;28;20201;-56
2022/12/31 03:07:40;;;;;;;0.80;0.30;;;13.90;99.90;;;;;;5053682;28;20213;-55
2022/12/31 03:10:09;;;;;;;0.20;0.20;;;13.90;99.90;;;;;;5053844;28;20229;-52
2022/12/31 03:12:47;;;;;;;0.10;0.10;;;13.90;99.90;;;;;;5053881;28;20673;-54
2022/12/31 03:15:20;;;;;;;0.30;0.20;;;13.90;99.90;;;;;;5054105;28;20205;-55
2022/12/31 03:17:54;;;;;;;0.70;0.30;;;13.80;99.90;;;;;;5054192;28;20233;-57
2022/12/31 03:23:11;;;;;;;0.20;0.20;;;13.80;99.90;;;;;;5053714;28;20224;-60
2022/12/31 03:25:37;;;;;;;0.30;0.20;;;13.80;99.90;;;;;;5057542;28;20208;-57
2022/12/31 03:28:07;;;;;;;0.30;0.30;;;13.80;99.90;;;;;;5064883;28;20190;-57
2022/12/31 03:30:35;;;;;;;0.53;0.10;;;13.80;99.90;;;;;;5073241;28;20285;-55
2022/12/31 03:33:04;;;;;;;0.43;0.30;;;13.80;99.90;;;;;;5073604;28;20623;-54
2022/12/31 03:35:33;;;;;;;1.60;0.37;;;13.80;99.90;;;;;;5073354;28;20205;-57
2022/12/31 03:38:00;;;;;;;0.80;0.40;;;13.80;99.90;;;;;;5072866;28;20703;-55
2022/12/31 03:40:28;;;;;;;0.50;0.30;;;13.90;99.90;;;;;;5073283;28;20229;-54
2022/12/31 03:42:54;;;;;;;0.87;0.37;;;13.90;99.90;;;;;;5073194;28;20632;-52
2022/12/31 03:45:22;;;;;;;1.20;0.60;;;14.10;99.90;;;;;;5073289;28;20254;-55
2022/12/31 03:47:49;;;;;;;0.80;0.43;;;14.10;99.90;;;;;;5073098;28;20258;-59
2022/12/31 03:50:19;;;;;;;0.80;0.60;;;14.10;99.90;;;;;;5073261;28;20229;-55
2022/12/31 03:52:46;;;;;;;1.53;0.60;;;14.10;99.90;;;;;;5073347;28;20562;-58
2022/12/31 03:55:13;;;;;;;1.57;0.40;;;14.20;99.90;;;;;;5072443;28;20258;-52
2022/12/31 03:57:40;;;;;;;0.83;0.40;;;14.30;99.90;;;;;;5052923;28;20636;-55
2022/12/31 04:00:09;;;;;;;0.40;0.30;;;14.30;99.90;;;;;;5053043;28;20287;-49
2022/12/31 04:02:36;;;;;;;1.27;0.47;;;14.30;99.90;;;;;;5052405;28;20259;-56
2022/12/31 04:05:03;;;;;;;0.20;0.20;;;14.50;99.90;;;;;;5052883;28;20209;-55
2022/12/31 04:07:31;;;;;;;0.30;0.17;;;14.50;99.90;;;;;;5052386;28;20202;-54
2022/12/31 04:09:58;;;;;;;1.13;0.30;;;14.60;99.90;;;;;;5052376;28;20263;-58
2022/12/31 04:12:24;;;;;;;0.20;0.20;;;14.60;99.90;;;;;;5052904;28;20259;-54
2022/12/31 04:14:51;;;;;;;1.50;0.43;;;14.60;99.90;;;;;;5052752;28;20179;-57
2022/12/31 04:17:18;;;;;;;2.73;0.30;;;14.60;99.90;;;;;;5052411;28;20275;-52
2022/12/31 04:19:45;;;;;;;1.20;0.40;;;14.70;99.90;;;;;;5052265;28;20717;-52
2022/12/31 04:22:11;;;;;;;0.47;0.27;;;14.70;99.90;;;;;;5052479;28;20216;-51
2022/12/31 04:24:39;;;;;;;0.83;0.27;;;14.70;99.90;;;;;;5053044;28;20217;-55
2022/12/31 04:27:06;;;;;;;2.17;0.23;;;14.70;99.90;;;;;;5052271;28;20202;-56
2022/12/31 04:29:32;;;;;;;1.37;0.30;;;14.70;99.90;;;;;;5052418;28;20228;-50
2022/12/31 04:31:59;;;;;;;0.83;0.30;;;14.70;99.90;;;;;;5052388;28;20217;-52
2022/12/31 04:34:26;;;;;;;2.20;0.30;;;14.60;99.90;;;;;;5052315;28;20632;-56
2022/12/31 04:36:53;;;;;;;1.43;0.23;;;14.60;99.90;;;;;;5051803;28;20209;-57
2022/12/31 04:39:19;;;;;;;0.73;0.43;;;14.50;99.90;;;;;;5051971;28;20234;-59
2022/12/31 04:41:47;;;;;;;0.50;0.20;;;14.40;99.90;;;;;;5052232;28;20339;-54
2022/12/31 04:44:14;;;;;;;1.33;0.40;;;14.40;99.90;;;;;;5052296;28;20210;-51
2022/12/31 04:46:41;;;;;;;1.87;0.40;;;14.40;99.90;;;;;;5051925;28;20202;-53
2022/12/31 04:49:07;;;;;;;0.53;0.30;;;14.40;99.90;;;;;;5051908;28;20225;-51
2022/12/31 04:51:34;;;;;;;0.87;0.20;;;14.50;99.90;;;;;;5051818;28;20209;-54
2022/12/31 04:54:01;;;;;;;0.90;0.30;;;14.50;99.90;;;;;;5051963;28;20252;-54
2022/12/31 04:56:28;;;;;;;0.20;0.20;;;14.70;99.90;;;;;;5051765;28;20205;-54
2022/12/31 04:58:57;;;;;;;1.10;0.27;;;14.70;99.90;;;;;;5066518;28;20228;-56
2022/12/31 05:01:24;;;;;;;0.60;0.20;;;14.90;99.90;;;;;;5072066;28;20204;-55
2022/12/31 05:03:51;;;;;;;0.33;0.20;;;14.90;99.90;;;;;;5071868;28;20269;-56
2022/12/31 05:06:20;;;;;;;0.43;0.20;;;15.00;99.90;;;;;;5071788;28;20262;-57
2022/12/31 05:08:48;;;;;;;1.03;0.30;;;15.00;99.90;;;;;;5071980;28;20242;-57
2022/12/31 05:11:15;;;;;;;0.30;0.30;;;15.00;99.90;;;;;;5071918;28;20306;-53
2022/12/31 05:13:42;;;;;;;0.40;0.30;;;15.00;99.90;;;;;;5071487;28;20212;-56
2022/12/31 05:16:10;;;;;;;0.60;0.30;;;15.00;99.90;;;;;;5071792;28;20262;-55
2022/12/31 05:18:37;;;;;;;0.53;0.20;;;15.00;99.90;;;;;;5071478;28;20229;-56
2022/12/31 05:21:04;;;;;;;0.63;0.30;;;15.10;99.90;;;;;;5071833;28;20589;-56
2022/12/31 05:23:31;;;;;;;5.10;0.47;;;15.20;99.90;;;;;;5071838;28;20239;-50
2022/12/31 05:25:59;;;;;;;1.60;0.33;;;15.10;99.90;;;;;;5064346;28;20201;-57
2022/12/31 05:28:26;;;;;;;0.40;0.20;;;15.10;99.90;;;;;;5051521;28;20288;-58
2022/12/31 05:30:52;;;;;;;0.20;0.20;;;15.10;99.90;;;;;;5051580;28;20292;-52
2022/12/31 05:33:21;;;;;;;0.60;0.30;;;15.20;99.90;;;;;;5051847;28;20210;-57
2022/12/31 05:35:48;;;;;;;0.30;0.20;;;15.20;99.90;;;;;;5051527;28;20263;-55
2022/12/31 05:38:15;;;;;;;2.00;0.50;;;15.20;99.90;;;;;;5050946;28;20720;-56
2022/12/31 05:40:42;;;;;;;1.47;0.23;;;15.30;99.90;;;;;;5051698;28;20212;-52
2022/12/31 05:43:09;;;;;;;0.30;0.20;;;15.30;99.90;;;;;;5051554;28;20259;-57
2022/12/31 05:45:36;;;;;;;1.43;0.37;;;15.30;99.90;;;;;;5051247;28;20239;-60
2022/12/31 05:48:02;;;;;;;0.30;0.10;;;15.40;99.90;;;;;;5051437;28;20228;-57
2022/12/31 05:50:31;;;;;;;1.70;0.40;;;15.40;99.90;;;;;;5051425;28;20255;-55
2022/12/31 05:52:57;;;;;;;3.57;0.37;;;15.50;99.90;;;;;;5051405;28;20251;-57
2022/12/31 05:55:24;;;;;;;2.37;0.40;;;15.40;99.90;;;;;;5053640;28;20259;-60
2022/12/31 05:57:51;;;;;;;;;;;15.50;99.90;;;;;;5062768;28;20205;-55
2022/12/31 06:00:17;;;;;;;1.50;0.50;;;15.50;99.90;;;;;;5071558;28;19966;-57
2022/12/31 06:02:44;;;;;;;1.33;0.20;;;15.50;99.90;;;;;;5071470;28;20205;-59
2022/12/31 06:05:11;;;;;;;1.63;0.33;;;15.40;99.90;;;;;;5071360;28;20213;-56
2022/12/31 06:07:39;;;;;;;1.23;0.23;;;15.50;99.90;;;;;;5071037;28;20209;-56
2022/12/31 06:10:06;;;;;;;0.70;0.30;;;15.50;99.90;;;;;;5070115;28;20418;-57
2022/12/31 06:12:34;;;;;;;1.70;0.37;;;15.50;99.90;;;;;;5071223;28;20205;-54
2022/12/31 06:15:00;;;;;;;1.13;0.40;;;15.70;99.90;;;;;;5071141;28;20745;-59
2022/12/31 06:17:28;;;;;;;2.73;0.30;;;15.70;99.90;;;;;;5071167;28;20205;-56
2022/12/31 06:19:54;;;;;;;0.87;0.23;;;15.70;99.90;;;;;;5071054;28;20090;-54
2022/12/31 06:22:21;;;;;;;;;;;15.60;99.90;;;;;;5071433;28;20259;-54
2022/12/31 06:24:49;;;;;;;1.13;0.30;;;15.60;99.90;;;;;;5072632;28;20062;-54
2022/12/31 06:27:15;;;;;;;2.63;0.30;;;15.60;99.90;;;;;;5065191;28;20258;-54
2022/12/31 06:29:44;;;;;;;1.17;0.30;;;15.60;99.90;;;;;;5054429;28;20275;-57
2022/12/31 06:32:11;;;;;;;5.30;0.20;;;15.60;99.90;;;;;;5054832;28;20219;-53
2022/12/31 06:34:37;;;;;;;;;;;15.50;99.90;;;;;;5054981;28;20098;-57
2022/12/31 06:37:04;;;;;;;;;;;15.60;99.90;;;;;;5054855;28;19944;-55
2022/12/31 06:39:30;;;;;;;;;;;15.50;99.90;;;;;;5054449;28;20338;-55
2022/12/31 06:41:58;;;;;;;;;;;15.60;99.90;;;;;;5054746;28;19928;-55
2022/12/31 06:44:25;;;;;;;;;;;15.60;99.90;;;;;;5054947;28;19924;-57
2022/12/31 06:46:51;;;;;;;;;;;15.70;99.90;;;;;;5054575;28;19932;-59
2022/12/31 06:49:18;;;;;;;;;;;15.60;99.90;;;;;;5054686;28;19925;-55
2022/12/31 06:51:46;;;;;;;;;;;15.60;99.90;;;;;;5054763;28;20338;-57
2022/12/31 06:54:13;;;;;;;;;;;15.60;99.90;;;;;;5054692;28;19921;-57
2022/12/31 06:56:40;;;;;;;;;;;15.60;99.90;;;;;;5053969;28;20437;-57
2022/12/31 06:59:14;;;;;;;;;;;15.50;99.90;;;;;;5054500;28;19929;-55
2022/12/31 07:01:46;;;;;;;;;;;15.60;99.90;;;;;;5053984;28;19921;-58
2022/12/31 07:04:22;;;;;;;;;;;15.60;99.90;;;;;;5054323;28;19920;-54
2022/12/31 07:06:52;;;;;;;;;;;15.60;99.90;;;;;;5054073;28;19974;-55
2022/12/31 07:09:24;;;;;;;;;;;15.60;99.90;;;;;;5054857;28;19927;-53
2022/12/31 07:11:54;;;;;;;;;;;15.60;99.90;;;;;;5054306;28;19920;-57
2022/12/31 07:14:30;;;;;;;;;;;15.70;99.90;;;;;;5054180;28;19920;-56
2022/12/31 07:17:00;;;;;;;;;;;15.60;99.90;;;;;;5054031;28;20284;-57
2022/12/31 07:19:31;;;;;;;;;;;15.60;99.90;;;;;;5053674;28;19921;-55
2022/12/31 07:21:58;;;;;;;;;;;15.70;99.90;;;;;;5054086;28;19924;-56
2022/12/31 07:24:25;;;;;;;;;;;15.70;99.90;;;;;;5054099;28;19924;-54
2022/12/31 07:26:58;;;;;;;;;;;15.70;99.90;;;;;;5062076;28;19920;-55
2022/12/31 07:29:29;;;;;;;;;;;15.80;99.90;;;;;;5072723;28;20340;-52
2022/12/31 07:32:01;;;;;;;;;;;15.80;99.90;;;;;;5073811;28;19959;-55
2022/12/31 07:34:36;;;;;;;;;;;15.80;99.90;;;;;;5073970;28;19925;-54
2022/12/31 07:37:07;;;;;;;;;;;15.80;99.90;;;;;;5073408;28;19920;-57
2022/12/31 07:39:37;;;;;;;;;;;15.80;99.90;;;;;;5073517;28;19920;-58
2022/12/31 07:42:09;;;;;;;;;;;15.70;99.90;;;;;;5073528;28;19966;-57
2022/12/31 07:44:42;;;;;;;;;;;15.80;99.90;;;;;;5073648;28;19946;-59
2022/12/31 07:47:14;;;;;;;;;;;16.00;99.90;;;;;;5073528;28;19921;-58
2022/12/31 07:49:42;;;;;;;;;;;16.00;99.90;;;;;;5073691;28;19921;-53
2022/12/31 07:52:09;;;;;;;;;;;15.90;99.90;;;;;;5073505;28;19924;-55
2022/12/31 07:54:35;;;;;;;;;;;15.90;99.90;;;;;;5073202;28;20377;-60
2022/12/31 07:57:02;;;;;;;;;;;15.90;99.90;;;;;;5064609;28;19921;-53
2022/12/31 07:59:35;;;;;;;;;;;15.90;99.90;;;;;;5053974;28;19920;-57
2022/12/31 08:02:07;;;;;;;;;;;15.90;99.90;;;;;;5052991;28;19920;-58
2022/12/31 08:04:39;;;;;;;;;;;15.90;99.90;;;;;;5053226;28;19920;-60
2022/12/31 08:07:08;;;;;;;;;;;15.90;99.90;;;;;;5052739;28;19995;-60
2022/12/31 08:09:42;;;;;;;;;;;15.90;99.90;;;;;;5053061;28;19979;-57
2022/12/31 08:12:09;;;;;;;;;;;15.90;99.90;;;;;;5053442;28;19921;-58
2022/12/31 08:14:39;;;;;;;;;;;16.00;99.90;;;;;;5055227;28;19921;-55
2022/12/31 08:17:09;;;;;;;;;;;16.00;99.90;;;;;;5054882;28;20394;-53
2022/12/31 08:19:36;;;;;;;;;;;16.00;99.90;;;;;;5052542;28;19920;-60
2022/12/31 08:22:14;;;;;;;;;;;16.00;99.90;;;;;;5052893;28;19978;-52
2022/12/31 08:24:54;;;;;;;1.70;0.40;;;16.00;99.90;;;;;;5052441;28;20375;-51
2022/12/31 08:27:28;;;;;;;1.43;0.50;;;16.00;99.90;;;;;;5052161;28;20252;-50
2022/12/31 08:30:02;;;;;;;0.70;0.47;;;16.00;99.90;;;;;;5052418;28;20225;-52
2022/12/31 08:32:36;;;;;;;0.90;0.30;;;16.00;99.90;;;;;;5052421;28;20189;-54
2022/12/31 08:35:12;;;;;;;1.33;0.40;;;16.00;99.90;;;;;;5051198;28;20467;-58
2022/12/31 08:37:43;;;;;;;1.37;0.50;;;16.10;99.90;;;;;;5051851;28;20205;-58
2022/12/31 08:40:24;;;;;;;3.13;0.40;;;16.10;99.90;;;;;;5052105;28;20237;-58
2022/12/31 08:43:27;;;;;;;1.50;0.50;;;16.20;99.10;;;;;;5052158;28;20255;-53
2022/12/31 08:45:54;;;;;;;1.40;0.40;;;16.20;99.90;;;;;;5051969;28;20658;-55
2022/12/31 08:48:30;;;;;;;2.73;0.67;;;16.20;99.90;;;;;;5051730;28;20279;-52
2022/12/31 08:50:58;;;;;;;2.17;0.65;;;16.10;99.90;;;;;;5050683;28;20800;-53
2022/12/31 08:53:25;;;;;;;1.50;0.40;;;16.20;99.70;;;;;;5052160;28;20205;-58
2022/12/31 08:55:57;;;;;;;1.53;0.60;;;16.20;93.40;;;;;;5057944;28;20197;-57
2022/12/31 08:58:39;;;;;;;2.93;0.50;;;16.20;95.10;;;;;;5063521;28;20205;-57
2022/12/31 09:01:06;;;;;;;;;;;16.20;98.90;;;;;;5072267;28;20052;-57
2022/12/31 09:03:42;;;;;;;;;;;16.10;99.90;;;;;;5072442;28;19946;-52
2022/12/31 09:06:19;;;;;;;1.77;0.50;;;16.20;92.80;;;;;;5071715;28;20219;-60
2022/12/31 09:08:54;;;;;;;2.72;0.60;;;16.30;91.40;;;;;;5070863;28;20408;-60
2022/12/31 09:11:28;;;;;;;2.07;0.70;;;16.30;92.10;;;;;;5071821;28;20234;-58
2022/12/31 09:14:17;;;;;;;3.10;0.97;;;16.30;90.90;;;;;;5071591;28;20736;-61
2022/12/31 09:16:53;;;;;;;3.40;0.77;;;16.20;90.60;;;;;;5071670;28;20619;-60
2022/12/31 09:19:21;;;;;;;2.37;0.60;;;16.30;91.80;;;;;;5071591;28;20225;-57
2022/12/31 09:21:48;;;;;;;2.38;0.90;;;16.30;85.60;;;;;;5070221;28;20412;-57
2022/12/31 09:24:16;;;;;;;3.70;0.93;;;16.30;85.30;;;;;;5071188;28;20209;-56
2022/12/31 09:26:52;;;;;;;1.83;0.60;;;16.30;77.20;;;;;;5063160;28;20193;-58
2022/12/31 09:29:26;;;;;;;;;;;16.30;84.60;;;;;;5054220;28;20044;-58
2022/12/31 09:31:59;;;;;;;3.20;0.80;;;16.30;76.60;;;;;;5051693;28;20601;-60
2022/12/31 09:34:34;;;;;;;;;;;16.30;88.80;;;;;;5051895;28;20061;-58
2022/12/31 09:37:06;;;;;;;2.43;1.00;;;16.30;75.90;;;;;;5051139;28;20219;-60
2022/12/31 09:39:40;;;;;;;1.83;0.50;;;16.30;87.80;;;;;;5051176;28;20225;-60
2022/12/31 09:42:40;;;;;;;2.50;0.70;;;16.40;76.40;;;;;;5050315;28;20416;-61
2022/12/31 09:45:40;;;;;;;3.35;0.80;;;16.50;69.50;;;;;;5047452;28;20471;-58
2022/12/31 09:48:44;;;;;;;3.17;0.83;;;16.40;75.30;;;;;;5051373;28;20585;-58
2022/12/31 09:51:29;;;;;;;3.17;0.70;;;16.50;72.30;;;;;;5043557;28;20873;-62
2022/12/31 09:54:20;;;;;;;2.73;0.73;;;16.40;82.70;;;;;;5049438;28;20198;-59
2022/12/31 09:56:57;;;;;;;1.47;0.70;;;16.30;79.70;;;;;;5052655;28;20220;-58
2022/12/31 09:59:36;;;;;;;2.70;0.70;;;16.30;87.00;;;;;;5049297;28;20232;-59
2022/12/31 10:02:20;;;;;;;0.70;0.43;;;16.30;93.20;;;;;;5050162;28;20686;-60
2022/12/31 10:05:02;;;;;;;3.20;0.77;;;16.30;88.50;;;;;;5048555;28;20213;-60
2022/12/31 10:07:41;;;;;;;2.13;0.80;;;16.30;88.90;;;;;;5054731;28;20209;-61
2022/12/31 10:10:14;;;;;;;;;;;16.30;79.40;;;;;;5054696;28;20041;-61
2022/12/31 10:13:16;;;;;;;1.40;0.90;;;16.30;84.90;;;;;;5058311;28;20581;-59
2022/12/31 10:15:53;;;;;;;;;;;16.30;83.30;;;;;;5018908;28;20048;-59
2022/12/31 10:18:37;;;;;;;2.73;0.73;;;16.30;79.40;;;;;;5073319;28;20783;-60
2022/12/31 10:21:20;;;;;;;3.10;0.73;;;16.50;66.20;;;;;;5074230;28;20208;-60
2022/12/31 10:24:04;;;;;;;1.47;0.60;;;16.50;59.90;;;;;;5074394;28;20201;-60
2022/12/31 10:26:44;;;;;;;1.57;0.80;;;16.50;54.50;;;;;;5065989;28;20206;-59
2022/12/31 10:29:24;;;;;;;2.57;0.70;;;16.50;63.40;;;;;;5057356;28;20221;-60
2022/12/31 10:32:06;;;;;;;4.90;0.93;;;16.50;50.60;;;;;;5054292;28;20304;-60
2022/12/31 10:34:47;;;;;;;1.63;0.70;;;16.50;53.50;;;;;;5054243;28;20227;-59
2022/12/31 10:37:17;;;;;;;1.07;0.80;;;16.60;54.40;;;;;;5053697;28;20768;-59
2022/12/31 10:39:56;;;;;;;1.30;0.70;;;16.60;45.00;;;;;;5062390;28;20285;-60
2022/12/31 10:42:51;;;;;;;2.03;0.70;;;16.70;31.40;;;;;;5055335;28;20225;-60
2022/12/31 10:45:30;;;;;;;;;;;16.70;27.50;;;;;;5032101;28;20138;-54
2022/12/31 10:48:37;;;;;;;1.10;0.50;;;16.70;35.50;;;;;;5053960;28;20301;-58
2022/12/31 10:51:41;;;;;;;3.13;1.23;;;16.70;38.20;;;;;;5052475;28;20424;-61
2022/12/31 10:54:56;;;;;;;16.90;8.13;;;16.70;30.00;;;;;;5052015;28;20417;-61
2022/12/31 10:57:50;;;;;;;4.32;1.63;;;16.80;23.90;;;;;;5052210;28;20421;-59
2022/12/31 11:00:19;;;;;;;4.65;1.23;;;16.80;23.20;;;;;;5051841;28;20536;-61
2022/12/31 11:03:31;;;;;;;3.30;0.60;;;16.80;18.20;;;;;;5053699;28;20616;-61
2022/12/31 11:06:42;;;;;;;3.42;0.90;;;16.80;15.60;;;;;;5052114;28;20410;-61
2022/12/31 11:09:47;;;;;;;4.17;1.00;;;16.80;19.40;;;;;;5049663;28;20207;-62
2022/12/31 11:12:32;;;;;;;3.42;0.93;;;16.80;26.80;;;;;;5043406;28;20434;-61
2022/12/31 11:15:17;;;;;;;3.00;0.70;;;16.80;34.50;;;;;;5051750;28;20417;-62
2022/12/31 11:17:57;;;;;;;3.50;0.70;;;16.80;23.70;;;;;;5045493;28;20201;-61
2022/12/31 11:20:48;;;;;;;1.27;0.60;;;16.80;22.20;;;;;;5052701;28;20657;-60
2022/12/31 11:23:26;;;;;;;2.60;0.60;;;16.80;23.10;;;;;;5053081;28;20681;-61
2022/12/31 11:26:04;;;;;;;3.83;0.67;;;16.80;22.30;;;;;;5053016;28;20202;-60
2022/12/31 11:29:04;;;;;;;2.37;0.80;;;16.80;25.20;;;;;;5053066;28;20201;-60
2022/12/31 11:31:40;;;;;;;3.50;0.80;;;16.80;26.90;;;;;;5051854;28;20193;-60
2022/12/31 11:34:29;;;;;;;3.90;0.83;;;16.80;25.60;;;;;;5052275;28;20453;-62
2022/12/31 11:37:14;;;;;;;1.80;0.57;;;16.80;25.30;;;;;;5056986;28;20206;-62
2022/12/31 11:39:55;;;;;;;2.37;0.80;;;16.70;20.90;;;;;;5059030;28;20236;-65
2022/12/31 11:42:26;;;;;;;2.77;0.80;;;16.70;35.10;;;;;;5058812;28;20213;-64
2022/12/31 11:45:01;;;;;;;2.10;0.60;;;16.60;24.10;;;;;;5063178;28;20618;-62
2022/12/31 11:47:43;;;;;;;6.07;0.93;;;16.70;26.60;;;;;;5063632;28;20286;-60
2022/12/31 11:50:38;;;;;;;4.37;1.27;;;16.70;26.40;;;;;;5072006;28;20225;-62
2022/12/31 11:53:34;;;;;;;4.20;1.60;;;16.60;24.60;;;;;;5070285;28;20694;-63
2022/12/31 11:56:11;;;;;;;3.20;1.13;;;16.60;25.40;;;;;;5062309;28;20205;-63
2022/12/31 11:58:40;;;;;;;4.83;0.60;;;16.60;24.00;;;;;;5056552;28;20220;-63
2022/12/31 12:01:13;;;;;;;2.63;0.90;;;16.60;19.50;;;;;;5069252;28;20423;-62
2022/12/31 12:03:42;;;;;;;6.70;0.87;;;16.60;15.30;;;;;;5070597;28;20213;-61
2022/12/31 12:06:29;;;;;;;1.33;0.80;;;16.60;13.60;;;;;;5046013;28;20230;-60
2022/12/31 12:09:05;;;;;;;4.03;0.90;;;16.60;16.40;;;;;;5038635;28;20222;-64
2022/12/31 12:11:37;;;;;;;1.77;0.87;;;16.60;12.30;;;;;;5052069;28;20218;-61
2022/12/31 12:14:19;;;;;;;3.57;1.00;;;16.60;11.10;;;;;;5051317;28;20417;-68
2022/12/31 12:16:52;;;;;;;1.77;0.70;;;16.60;9.60;;;;;;5045080;28;20548;-62
2022/12/31 12:19:18;;;;;;;2.67;0.87;;;16.50;19.50;;;;;;5051616;28;20712;-61
2022/12/31 12:21:47;;;;;;;1.93;0.67;;;16.50;28.50;;;;;;5051080;28;20214;-61
2022/12/31 12:24:20;;;;;;;2.93;1.00;;;16.50;35.50;;;;;;5059293;28;20204;-65
2022/12/31 12:26:47;;;;;;;3.20;0.80;;;16.40;63.70;;;;;;5059814;28;20231;-64
2022/12/31 12:29:17;;;;;;;3.70;0.97;;;16.20;92.50;;;;;;5051086;28;20225;-62
2022/12/31 12:31:56;;;;;;;2.83;1.10;;;16.10;99.90;;;;;;5062723;28;20766;-63
2022/12/31 12:34:25;;;;;;;5.80;1.00;;;16.00;99.90;;;;;;5064346;28;20216;-62
2022/12/31 12:36:52;;;;;;;1.93;1.00;;;16.10;97.90;;;;;;5071738;28;20204;-61
2022/12/31 12:39:21;;;;;;;5.50;1.83;;;16.00;99.90;;;;;;5051767;28;20237;-63
2022/12/31 12:41:58;;;;;;;2.83;1.00;;;15.90;99.90;;;;;;5051668;28;20773;-63
2022/12/31 12:44:25;;;;;;;5.13;1.07;;;15.70;99.90;;;;;;5051726;28;20205;-64
2022/12/31 12:46:53;;;;;;;2.20;0.80;;;15.50;99.90;;;;;;5051645;28;20205;-66
2022/12/31 12:49:24;;;;;;;3.30;1.10;;;15.40;99.90;;;;;;5052581;28;20313;-62
2022/12/31 12:52:08;;;;;;;3.13;1.00;;;15.40;99.90;;;;;;5051223;28;20193;-64
2022/12/31 12:54:50;;;;;;;3.33;1.00;;;15.40;99.90;;;;;;5052059;28;20625;-64
2022/12/31 12:57:26;;;;;;;3.53;1.10;;;15.30;99.90;;;;;;5059776;28;20266;-64
2022/12/31 13:00:15;;;;;;;4.33;1.10;;;15.40;99.90;;;;;;5051566;28;20239;-65
2022/12/31 13:03:12;;;;;;;2.87;0.90;;;15.50;99.90;;;;;;5051460;28;20216;-65
2022/12/31 13:05:57;;;;;;;3.47;2.00;;;15.50;99.90;;;;;;5051473;28;20209;-65
2022/12/31 13:08:43;;;;;;;3.80;1.37;;;15.60;99.90;;;;;;5051372;28;20214;-67
2022/12/31 13:11:25;;;;;;;4.43;1.10;;;15.60;99.90;;;;;;5050472;28;20263;-65
2022/12/31 13:14:00;;;;;;;4.20;1.00;;;15.70;99.90;;;;;;5051460;28;20299;-65
2022/12/31 13:16:37;;;;;;;3.33;1.10;;;15.70;99.90;;;;;;5051368;28;20202;-65
2022/12/31 13:19:11;;;;;;;2.93;1.13;;;15.80;99.90;;;;;;5051297;28;20221;-65
2022/12/31 13:21:44;;;;;;;;;;;15.80;99.90;;;;;;5051638;28;20049;-65
2022/12/31 13:24:29;;;;;;;5.83;1.57;;;15.90;99.90;;;;;;5051079;28;20219;-65
2022/12/31 13:27:04;;;;;;;4.30;1.17;;;16.10;95.60;;;;;;5057452;28;20642;-65
2022/12/31 13:29:34;;;;;;;5.33;0.97;;;16.10;93.10;;;;;;5057062;28;20271;-64
2022/12/31 13:32:05;;;;;;;5.83;1.03;;;16.00;99.60;;;;;;5050863;28;20197;-63
2022/12/31 13:34:36;;;;;;;3.13;1.00;;;15.90;99.90;;;;;;5054169;28;20190;-66
2022/12/31 13:37:06;;;;;;;;;;;15.80;99.90;;;;;;5055505;28;20053;-66
2022/12/31 13:39:36;;;;;;;;;;;15.80;99.90;;;;;;5055498;28;19921;-64
2022/12/31 13:42:11;;;;;;;6.17;1.60;;;15.70;99.90;;;;;;5054812;28;20689;-63
2022/12/31 13:44:41;;;;;;;3.03;1.10;;;15.90;99.90;;;;;;5054846;28;20684;-62